Terminal Aerodrome Forecast
Issued by NWS

Home | Current Version | Previous Version | Text Only | Print | Product List | Glossary On
Versions: 1 2 3 4 5 6 7 8 9 10 11 12 13 14 15
000
FTUS42 KFFC 272340
TAFFTY
TAF
KFTY 272340Z 2800/2824 34005KT P6SM BKN200
     FM280600 03003KT P6SM BKN200
     FM281500 09008KT P6SM SCT050 BKN120
     FM282000 10007KT P6SM BKN050 OVC100 PROB30 2822/2824 6SM -RA BR
      BKN025=

USA.gov is the U.S. government's official web portal to all federal, state and local government web resources and services.